Time;durP1;ratioP1;P1;durP2;ratioP2;P2;SDS_P1;SDS_P2;PMS_P1;PMS_P2;Temp;Humidity;BMP_temperature;BMP_pressure;BME280_temperature;BME280_humidity;BME280_pressure;Samples;Min_cycle;Max_cycle;Signal;HPM_P1;HPM_P2
2023/05/18 04:02:06;;;;;;;1.73;0.87;;;8.50;1.00;;;;;;5349500;23;20587;-75
2023/05/18 04:04:34;;;;;;;0.50;0.13;;;8.30;1.00;;;;;;4997333;28;20470;-75
2023/05/18 04:07:04;;;;;;;0.70;0.40;;;8.30;1.00;;;;;;5000707;28;20455;-76
2023/05/18 04:09:33;;;;;;;0.50;0.10;;;8.20;1.00;;;;;;5003058;28;20440;-75
2023/05/18 04:12:02;;;;;;;0.60;0.10;;;8.20;1.00;;;;;;4996215;28;20456;-74
2023/05/18 04:14:31;;;;;;;0.60;0.30;;;8.20;1.00;;;;;;4987292;23;20633;-70
2023/05/18 04:17:03;;;;;;;0.50;0.10;;;8.20;1.00;;;;;;4965770;28;20487;-72
2023/05/18 04:19:33;;;;;;;0.67;0.20;;;8.20;1.00;;;;;;4967381;28;20449;-69
2023/05/18 04:22:03;;;;;;;0.60;0.20;;;8.20;1.00;;;;;;4967957;28;20446;-71
2023/05/18 04:24:31;;;;;;;0.50;0.10;;;8.20;1.00;;;;;;4980452;28;20551;-69
2023/05/18 04:26:59;;;;;;;0.50;0.10;;;8.20;1.00;;;;;;4978278;28;20869;-71
2023/05/18 04:29:27;;;;;;;0.60;0.10;;;8.20;1.00;;;;;;4974208;28;20497;-69
2023/05/18 04:31:58;;;;;;;0.60;0.30;;;8.30;1.00;;;;;;4973546;28;20490;-71
2023/05/18 04:34:27;;;;;;;0.60;0.20;;;8.30;1.00;;;;;;4973580;28;20502;-70
2023/05/18 04:36:57;;;;;;;0.60;0.20;;;8.30;1.00;;;;;;4964150;28;20578;-69
2023/05/18 04:39:26;;;;;;;0.80;0.20;;;8.40;1.00;;;;;;4976189;28;20442;-71
2023/05/18 04:41:57;;;;;;;0.60;0.30;;;8.40;1.00;;;;;;4977720;28;20454;-70
2023/05/18 04:44:26;;;;;;;0.50;0.10;;;8.30;1.00;;;;;;4974064;28;20469;-70
2023/05/18 04:46:54;;;;;;;1.10;0.50;;;8.30;1.00;;;;;;4973558;28;20541;-70
2023/05/18 04:49:24;;;;;;;0.50;0.10;;;8.30;1.00;;;;;;4973291;28;20533;-71
2023/05/18 04:51:55;;;;;;;0.50;0.10;;;8.30;1.00;;;;;;4973351;28;20446;-70
2023/05/18 04:54:25;;;;;;;0.50;0.10;;;8.30;1.00;;;;;;4973146;28;21060;-73
2023/05/18 04:56:53;;;;;;;0.50;0.10;;;8.30;1.00;;;;;;4973450;28;20448;-71
2023/05/18 04:59:24;;;;;;;0.90;0.40;;;8.30;1.00;;;;;;4973286;28;20453;-69
2023/05/18 05:01:53;;;;;;;0.50;0.10;;;8.30;1.00;;;;;;4973146;28;20479;-70
2023/05/18 05:04:22;;;;;;;0.50;0.10;;;8.30;1.00;;;;;;4972773;28;20966;-71
2023/05/18 05:06:50;;;;;;;0.67;0.50;;;8.30;1.00;;;;;;4962550;28;20474;-70
2023/05/18 05:09:18;;;;;;;0.50;0.20;;;8.40;1.00;;;;;;4973866;28;20453;-70
2023/05/18 05:11:47;;;;;;;0.80;0.77;;;8.40;1.00;;;;;;4958280;28;20526;-68
2023/05/18 05:14:15;;;;;;;1.50;0.83;;;8.40;1.00;;;;;;4953788;28;20601;-69
2023/05/18 05:16:43;;;;;;;0.50;0.10;;;8.30;1.00;;;;;;4953557;28;20450;-69
2023/05/18 05:19:11;;;;;;;3.47;0.47;;;8.40;1.00;;;;;;4953754;29;20487;-71
2023/05/18 05:21:40;;;;;;;0.50;0.10;;;8.30;1.00;;;;;;4953969;29;20506;-70
2023/05/18 05:24:08;;;;;;;0.50;0.10;;;8.40;1.00;;;;;;4953407;28;20506;-70
2023/05/18 05:26:36;;;;;;;0.50;0.10;;;8.40;1.20;;;;;;4956789;29;20456;-70
2023/05/18 05:29:05;;;;;;;0.50;0.10;;;8.60;1.00;;;;;;4959266;28;21018;-70
2023/05/18 05:31:33;;;;;;;0.60;0.30;;;8.50;1.70;;;;;;4969078;28;20469;-69
2023/05/18 05:34:01;;;;;;;0.60;0.53;;;8.70;1.00;;;;;;4976567;28;20468;-71
2023/05/18 05:36:30;;;;;;;0.50;0.10;;;8.70;1.00;;;;;;4976638;28;20995;-71
2023/05/18 05:38:58;;;;;;;0.50;0.10;;;8.80;1.50;;;;;;4976784;28;20492;-69
2023/05/18 05:41:26;;;;;;;0.50;0.20;;;8.90;1.40;;;;;;4976836;28;20506;-69
2023/05/18 05:43:54;;;;;;;0.60;0.10;;;8.90;1.00;;;;;;4976770;28;20508;-69
2023/05/18 05:46:24;;;;;;;0.50;0.10;;;9.00;1.20;;;;;;4977006;28;21005;-70
2023/05/18 05:48:52;;;;;;;0.50;0.10;;;9.00;1.00;;;;;;4977094;28;20874;-70
2023/05/18 05:51:20;;;;;;;0.60;0.10;;;9.10;1.30;;;;;;4972472;28;20450;-72
2023/05/18 05:53:48;;;;;;;0.50;0.10;;;9.10;1.00;;;;;;4957804;28;20470;-69
2023/05/18 05:56:16;;;;;;;1.90;1.60;;;9.10;1.20;;;;;;4957489;28;20509;-69
2023/05/18 05:58:44;;;;;;;0.60;0.10;;;9.20;1.00;;;;;;4957906;28;20513;-70
2023/05/18 06:01:12;;;;;;;0.60;0.20;;;9.30;1.00;;;;;;4957442;28;20489;-70
2023/05/18 06:03:41;;;;;;;0.60;0.10;;;9.40;1.00;;;;;;4956749;28;20480;-69
2023/05/18 06:06:10;;;;;;;0.60;0.20;;;9.40;1.00;;;;;;4938857;29;20547;-69
2023/05/18 06:08:37;;;;;;;0.60;0.10;;;9.30;1.00;;;;;;4939971;29;20450;-69
2023/05/18 06:11:05;;;;;;;0.50;0.20;;;9.30;1.00;;;;;;4940594;29;20455;-69
2023/05/18 06:13:36;;;;;;;0.60;0.10;;;9.40;1.00;;;;;;4959669;28;20493;-69
2023/05/18 06:16:04;;;;;;;0.63;0.27;;;9.40;1.00;;;;;;4960524;29;20546;-69
2023/05/18 06:18:32;;;;;;;2.63;2.53;;;9.50;1.00;;;;;;4958335;28;20497;-70
2023/05/18 06:21:01;;;;;;;0.60;0.30;;;9.50;1.00;;;;;;4958388;28;20638;-70
2023/05/18 06:23:29;;;;;;;0.60;0.10;;;9.60;1.00;;;;;;4956844;28;20529;-71
2023/05/18 06:25:57;;;;;;;0.60;0.10;;;9.60;1.00;;;;;;4957745;28;20533;-70
2023/05/18 06:28:24;;;;;;;0.60;0.10;;;9.60;1.00;;;;;;4957505;28;20537;-68
2023/05/18 06:30:52;;;;;;;0.87;0.57;;;9.70;1.00;;;;;;4956906;29;20860;-70
2023/05/18 06:33:22;;;;;;;0.60;0.30;;;9.90;1.00;;;;;;4955954;28;20565;-70
2023/05/18 06:35:50;;;;;;;0.60;0.20;;;9.90;1.00;;;;;;4956289;28;20454;-70
2023/05/18 06:38:19;;;;;;;0.60;0.20;;;10.00;1.00;;;;;;4957137;29;20487;-71
2023/05/18 06:40:47;;;;;;;0.60;0.10;;;10.00;1.00;;;;;;4957076;28;20451;-69
2023/05/18 06:43:15;;;;;;;0.60;0.10;;;10.10;1.00;;;;;;4956156;29;20562;-70
2023/05/18 06:45:43;;;;;;;0.60;0.10;;;10.10;1.00;;;;;;4956731;28;20502;-71
2023/05/18 06:48:11;;;;;;;0.70;0.30;;;10.20;1.00;;;;;;4956231;28;20498;-69
2023/05/18 06:50:39;;;;;;;0.60;0.10;;;10.30;2.90;;;;;;4956041;28;21022;-69
2023/05/18 06:53:07;;;;;;;0.60;0.20;;;10.40;1.00;;;;;;4965741;28;20480;-69
2023/05/18 06:55:36;;;;;;;0.80;0.50;;;10.40;1.00;;;;;;4956226;28;20478;-71
2023/05/18 06:58:04;;;;;;;0.60;0.20;;;10.40;1.00;;;;;;4955977;28;20486;-70
2023/05/18 07:00:32;;;;;;;1.70;1.60;;;10.40;1.00;;;;;;4955913;28;20478;-71
2023/05/18 07:03:00;;;;;;;0.60;0.10;;;10.50;1.00;;;;;;4955122;28;20490;-72
2023/05/18 07:05:28;;;;;;;0.60;0.20;;;10.50;1.00;;;;;;4956321;28;20875;-71
2023/05/18 07:07:57;;;;;;;0.60;0.10;;;10.50;1.00;;;;;;4956355;28;20454;-70
2023/05/18 07:10:25;;;;;;;0.60;0.10;;;10.70;1.00;;;;;;4957617;28;20451;-71
2023/05/18 07:12:55;;;;;;;0.60;0.10;;;10.80;1.00;;;;;;4959778;28;20455;-71
2023/05/18 07:15:24;;;;;;;0.70;0.37;;;10.80;1.00;;;;;;4959894;28;20448;-71
2023/05/18 07:17:52;;;;;;;4.63;0.73;;;10.90;1.00;;;;;;4939541;29;20464;-71
2023/05/18 07:20:20;;;;;;;0.60;0.10;;;11.00;1.00;;;;;;4937663;29;20563;-73
2023/05/18 07:22:50;;;;;;;0.60;0.10;;;11.10;1.00;;;;;;4948654;28;20451;-71
2023/05/18 07:25:18;;;;;;;0.60;0.10;;;11.10;1.00;;;;;;4955613;28;20456;-70
2023/05/18 07:27:46;;;;;;;0.60;0.10;;;11.10;1.00;;;;;;4955371;28;20939;-71
2023/05/18 07:30:15;;;;;;;1.10;0.40;;;11.10;1.00;;;;;;4955723;28;20931;-70
2023/05/18 07:32:44;;;;;;;0.60;0.10;;;11.10;1.00;;;;;;4954530;28;20958;-71
2023/05/18 07:35:12;;;;;;;0.60;0.10;;;11.20;1.00;;;;;;4955412;29;20446;-69
2023/05/18 07:37:40;;;;;;;1.97;0.90;;;11.20;1.00;;;;;;4955298;28;20548;-70
2023/05/18 07:40:09;;;;;;;1.13;0.50;;;11.40;1.00;;;;;;4955175;28;20488;-71
2023/05/18 07:42:38;;;;;;;0.60;0.10;;;11.50;1.00;;;;;;4954808;28;20466;-72
2023/05/18 07:45:07;;;;;;;0.60;0.10;;;11.50;1.00;;;;;;4955529;28;20967;-71
2023/05/18 07:47:36;;;;;;;0.60;0.20;;;11.70;1.00;;;;;;4954903;28;20471;-70
2023/05/18 07:50:05;;;;;;;0.60;0.30;;;11.70;1.00;;;;;;4955360;28;20818;-70
2023/05/18 07:52:33;;;;;;;0.60;0.10;;;11.70;1.00;;;;;;4955114;28;20452;-70
2023/05/18 07:55:01;;;;;;;1.53;0.73;;;11.70;1.00;;;;;;4955009;28;20550;-68
2023/05/18 07:57:29;;;;;;;0.70;0.30;;;11.80;1.00;;;;;;4962544;28;20940;-69
2023/05/18 07:59:57;;;;;;;3.43;0.70;;;11.80;1.00;;;;;;4961144;28;20483;-70
2023/05/18 08:02:25;;;;;;;0.60;0.37;;;;;;;;;;4964051;28;20475;-69
2023/05/18 08:04:55;;;;;;;0.60;0.10;;;11.90;1.00;;;;;;4961690;28;20467;-70
2023/05/18 08:07:25;;;;;;;0.60;0.10;;;11.90;1.00;;;;;;4965095;28;20501;-70
2023/05/18 08:09:53;;;;;;;0.60;0.13;;;12.00;1.00;;;;;;4961767;28;20451;-69
2023/05/18 08:12:21;;;;;;;0.60;0.10;;;12.00;1.00;;;;;;4962860;28;20454;-71
2023/05/18 08:14:49;;;;;;;0.60;0.10;;;12.30;1.00;;;;;;4961029;28;20515;-70
2023/05/18 08:17:18;;;;;;;21.90;19.87;;;12.30;1.00;;;;;;4967988;28;20442;-70
2023/05/18 08:19:46;;;;;;;0.60;0.10;;;12.50;1.00;;;;;;4968798;28;20481;-69
2023/05/18 08:22:15;;;;;;;0.60;0.30;;;12.60;1.00;;;;;;4962886;28;20472;-71
2023/05/18 08:24:43;;;;;;;0.70;0.23;;;12.60;1.00;;;;;;4960920;28;20466;-70
2023/05/18 08:27:11;;;;;;;0.60;0.10;;;12.70;1.00;;;;;;4955740;28;20470;-70
2023/05/18 08:29:39;;;;;;;0.90;0.70;;;12.70;1.00;;;;;;4955011;28;20600;-71
2023/05/18 08:32:08;;;;;;;0.70;0.37;;;12.70;1.00;;;;;;4955313;28;20444;-69
2023/05/18 08:34:36;;;;;;;0.60;0.10;;;12.80;1.00;;;;;;4955995;28;20495;-70
2023/05/18 08:37:04;;;;;;;0.60;0.13;;;12.80;1.00;;;;;;4959456;28;20810;-70
2023/05/18 08:39:35;;;;;;;0.60;0.20;;;12.80;1.00;;;;;;4964726;28;21269;-69
2023/05/18 08:42:07;;;;;;;0.70;0.33;;;12.80;1.00;;;;;;4964459;28;20452;-71
2023/05/18 08:44:45;;;;;;;0.60;0.10;;;12.90;1.00;;;;;;4962823;29;21020;-72
2023/05/18 08:47:15;;;;;;;0.60;0.27;;;13.00;1.00;;;;;;4961600;28;20516;-70
2023/05/18 08:49:43;;;;;;;0.60;0.10;;;13.00;1.00;;;;;;4963362;28;20448;-70
2023/05/18 08:52:17;;;;;;;0.60;0.20;;;13.10;1.00;;;;;;4967446;28;20445;-70
2023/05/18 08:54:48;;;;;;;0.60;0.20;;;13.30;1.00;;;;;;4968050;28;20544;-72
2023/05/18 08:57:17;;;;;;;1.33;0.63;;;13.30;1.00;;;;;;4974223;28;20465;-71
2023/05/18 08:59:46;;;;;;;0.60;0.10;;;13.40;1.00;;;;;;4976507;28;20543;-71
2023/05/18 09:02:14;;;;;;;0.60;0.10;;;13.40;1.00;;;;;;4979584;28;20513;-71
2023/05/18 09:04:43;;;;;;;1.17;0.53;;;13.60;1.00;;;;;;4979330;28;20464;-69
2023/05/18 09:07:12;;;;;;;0.60;0.10;;;13.60;1.00;;;;;;4983780;28;20627;-71
2023/05/18 09:09:41;;;;;;;0.60;0.10;;;13.80;1.00;;;;;;4994005;28;20444;-77
2023/05/18 09:12:11;;;;;;;0.60;0.10;;;13.80;1.00;;;;;;4987730;28;20448;-73
2023/05/18 09:14:42;;;;;;;0.60;0.10;;;14.00;1.00;;;;;;4960915;28;20540;-73
2023/05/18 09:17:11;;;;;;;0.60;0.10;;;14.10;1.00;;;;;;4959872;29;20459;-72
2023/05/18 09:19:39;;;;;;;0.60;0.10;;;14.10;1.00;;;;;;4958251;28;20514;-70
2023/05/18 09:22:07;;;;;;;0.60;0.10;;;14.20;1.00;;;;;;4957719;28;20506;-69
2023/05/18 09:24:36;;;;;;;0.60;0.27;;;14.30;1.00;;;;;;4959460;28;21034;-70
2023/05/18 09:27:05;;;;;;;0.60;0.20;;;14.40;1.00;;;;;;4959150;28;20484;-68
2023/05/18 09:29:34;;;;;;;0.60;0.10;;;14.50;1.00;;;;;;4961340;28;20470;-69
2023/05/18 09:32:04;;;;;;;0.60;0.30;;;14.50;1.00;;;;;;4960169;28;20485;-69
2023/05/18 09:34:40;;;;;;;0.60;0.10;;;14.50;1.00;;;;;;4959151;28;20495;-69
2023/05/18 09:37:09;;;;;;;0.60;0.10;;;14.60;1.00;;;;;;4957887;29;20500;-69
2023/05/18 09:39:37;;;;;;;0.60;0.10;;;14.70;1.00;;;;;;4957706;29;20493;-69
2023/05/18 09:42:05;;;;;;;0.60;0.20;;;14.80;1.00;;;;;;4958555;29;20459;-69
2023/05/18 09:44:35;;;;;;;0.60;0.20;;;14.90;1.00;;;;;;4957111;28;20501;-68
2023/05/18 09:47:08;;;;;;;1.17;0.37;;;15.00;1.00;;;;;;4957162;28;20822;-69
2023/05/18 09:49:37;;;;;;;0.60;0.17;;;15.00;1.00;;;;;;4957069;29;20960;-68
2023/05/18 09:52:08;;;;;;;0.60;0.10;;;14.90;1.00;;;;;;4957483;29;20542;-68
2023/05/18 09:54:37;;;;;;;0.70;0.30;;;15.00;1.00;;;;;;4957423;28;20530;-67
2023/05/18 09:57:05;;;;;;;1.07;0.57;;;15.20;1.00;;;;;;4957531;28;21047;-68
2023/05/18 09:59:40;;;;;;;0.60;0.10;;;15.20;1.00;;;;;;4957549;29;20448;-69
2023/05/18 10:02:11;;;;;;;0.60;0.20;;;15.20;1.00;;;;;;4958627;28;21020;-72
2023/05/18 10:04:41;;;;;;;0.60;0.10;;;15.40;1.00;;;;;;4957751;28;20517;-73
2023/05/18 10:07:11;;;;;;;0.60;0.20;;;15.40;1.00;;;;;;4960973;29;20453;-72
2023/05/18 10:09:40;;;;;;;0.60;0.10;;;15.50;1.00;;;;;;4961180;28;20469;-71
2023/05/18 10:12:12;;;;;;;0.60;0.10;;;15.40;1.00;;;;;;4960370;28;20443;-71
2023/05/18 10:14:43;;;;;;;1.80;0.30;;;15.20;1.00;;;;;;4983206;23;20533;-72
2023/05/18 10:17:12;;;;;;;0.60;0.10;;;15.40;1.00;;;;;;4977044;28;20466;-72
2023/05/18 10:19:44;;;;;;;0.60;0.10;;;15.50;1.00;;;;;;4976194;28;20824;-72
2023/05/18 10:22:16;;;;;;;0.60;0.20;;;15.70;1.00;;;;;;4976569;28;20496;-71
2023/05/18 10:24:49;;;;;;;0.70;0.30;;;15.80;1.00;;;;;;4976912;28;20497;-72
2023/05/18 10:27:19;;;;;;;0.60;0.10;;;15.90;1.00;;;;;;4977134;28;20487;-73
2023/05/18 10:29:51;;;;;;;0.60;0.30;;;15.90;1.00;;;;;;4978533;28;20485;-70
2023/05/18 10:32:20;;;;;;;0.60;0.20;;;16.00;1.00;;;;;;4978229;28;20443;-71
2023/05/18 10:34:50;;;;;;;1.17;0.83;;;16.10;1.00;;;;;;4978054;28;20538;-72
2023/05/18 10:37:22;;;;;;;0.60;0.10;;;16.10;1.00;;;;;;4977454;28;20478;-72
2023/05/18 10:39:51;;;;;;;0.60;0.10;;;16.10;1.00;;;;;;4977923;28;20551;-71
2023/05/18 10:42:19;;;;;;;0.60;0.10;;;16.30;1.00;;;;;;4977804;28;20538;-71
2023/05/18 10:44:50;;;;;;;0.60;0.10;;;16.30;1.00;;;;;;4977846;28;21005;-70
2023/05/18 10:47:19;;;;;;;0.60;0.10;;;16.50;1.00;;;;;;4977455;28;20542;-72
2023/05/18 10:49:49;;;;;;;0.60;0.10;;;16.60;1.00;;;;;;4976699;28;20452;-71
2023/05/18 10:52:17;;;;;;;0.60;0.10;;;16.70;1.00;;;;;;4975952;28;20479;-71
2023/05/18 10:54:46;;;;;;;0.70;0.53;;;16.80;1.00;;;;;;4976505;28;20564;-72
2023/05/18 10:57:17;;;;;;;0.60;0.10;;;16.80;1.00;;;;;;4976829;28;20816;-71
2023/05/18 10:59:47;;;;;;;0.60;0.10;;;16.90;1.00;;;;;;4976197;28;20532;-70
2023/05/18 11:02:18;;;;;;;0.60;0.20;;;16.80;1.00;;;;;;4976654;28;20495;-70
2023/05/18 11:04:49;;;;;;;0.60;0.20;;;16.60;1.00;;;;;;4976268;28;20459;-71
2023/05/18 11:07:21;;;;;;;0.70;0.20;;;16.50;1.00;;;;;;4976409;28;20527;-71
2023/05/18 11:09:49;;;;;;;0.73;0.33;;;16.30;1.00;;;;;;4973785;28;20548;-71
2023/05/18 11:12:17;;;;;;;0.60;0.10;;;16.30;1.00;;;;;;4976237;28;20441;-72
2023/05/18 11:14:50;;;;;;;0.60;0.10;;;16.40;1.00;;;;;;4975998;28;20479;-73
2023/05/18 11:17:24;;;;;;;0.60;0.10;;;16.50;1.00;;;;;;4975987;28;20461;-71
2023/05/18 11:20:11;;;;;;;0.60;0.10;;;16.60;1.00;;;;;;4977348;28;20448;-71
2023/05/18 11:22:45;;;;;;;0.60;0.10;;;16.70;1.00;;;;;;4974705;28;20451;-73
2023/05/18 11:25:38;;;;;;;0.60;0.13;;;16.80;1.00;;;;;;4976235;28;20470;-72
2023/05/18 11:28:08;;;;;;;0.60;0.10;;;12.80;1.00;;;;;;4965807;28;20545;-74
2023/05/18 11:30:49;;;;;;;0.60;0.10;;;16.80;1.00;;;;;;4973979;28;20497;-73
2023/05/18 11:33:23;;;;;;;0.60;0.10;;;17.00;1.00;;;;;;4968850;28;20464;-73
2023/05/18 11:36:02;;;;;;;0.60;0.20;;;16.90;1.00;;;;;;4973252;28;20449;-73
2023/05/18 11:38:48;;;;;;;0.60;0.17;;;17.00;1.00;;;;;;4964356;28;20455;-71
2023/05/18 11:41:33;;;;;;;0.70;0.30;;;17.10;1.00;;;;;;4970734;28;20599;-73
2023/05/18 11:44:15;;;;;;;0.60;0.10;;;17.10;1.00;;;;;;4968625;28;20566;-71
2023/05/18 11:46:54;;;;;;;1.00;0.23;;;17.20;1.00;;;;;;4977448;28;20474;-72
2023/05/18 11:49:24;;;;;;;0.60;0.10;;;17.20;1.00;;;;;;4958572;28;20451;-74
2023/05/18 11:51:57;;;;;;;1.37;0.50;;;17.30;1.00;;;;;;4957925;28;21025;-72
2023/05/18 11:54:26;;;;;;;0.60;0.10;;;17.40;1.00;;;;;;4955958;28;20477;-72
2023/05/18 11:56:54;;;;;;;2.70;1.43;;;17.40;1.00;;;;;;4956433;28;20525;-72
2023/05/18 11:59:33;;;;;;;0.80;0.40;;;17.40;1.00;;;;;;4971094;28;20458;-75
2023/05/18 12:02:02;;;;;;;0.60;0.10;;;17.40;1.00;;;;;;4973082;28;21019;-72
2023/05/18 12:04:33;;;;;;;0.60;0.10;;;17.30;1.00;;;;;;4974728;28;20464;-72
2023/05/18 12:07:05;;;;;;;0.60;0.20;;;17.30;1.00;;;;;;4966298;28;20459;-71
2023/05/18 12:09:34;;;;;;;33.83;4.60;;;17.30;1.00;;;;;;4975013;28;20540;-72
2023/05/18 12:12:02;;;;;;;0.60;0.10;;;;;;;;;;4968295;28;21001;-73
2023/05/18 12:14:34;;;;;;;0.83;0.73;;;17.30;1.00;;;;;;4973680;28;20485;-72
2023/05/18 12:17:02;;;;;;;0.60;0.10;;;17.30;1.00;;;;;;4971374;28;20469;-73
2023/05/18 12:19:37;;;;;;;0.60;0.20;;;17.10;1.00;;;;;;4969228;28;20453;-73
2023/05/18 12:22:05;;;;;;;0.60;0.10;;;17.10;1.00;;;;;;4971679;28;20499;-74
2023/05/18 12:24:37;;;;;;;0.60;0.10;;;17.30;1.00;;;;;;4967942;28;20572;-71
2023/05/18 12:27:07;;;;;;;0.60;0.10;;;17.40;1.00;;;;;;4971546;28;20508;-72
2023/05/18 12:29:38;;;;;;;0.60;0.10;;;17.40;1.00;;;;;;4973420;28;20441;-73
2023/05/18 12:32:08;;;;;;;3.03;0.40;;;17.50;1.00;;;;;;4973741;28;20442;-71
2023/05/18 12:34:38;;;;;;;0.60;0.10;;;17.60;1.00;;;;;;4974205;28;20514;-73
2023/05/18 12:37:06;;;;;;;0.60;0.10;;;17.80;1.00;;;;;;4973892;28;20504;-71
2023/05/18 12:39:35;;;;;;;0.60;0.20;;;17.70;1.00;;;;;;4974273;28;20437;-71
2023/05/18 12:42:11;;;;;;;3.07;0.77;;;17.50;1.00;;;;;;4973139;28;20481;-70
2023/05/18 12:44:39;;;;;;;0.60;0.10;;;17.40;1.00;;;;;;4973401;28;20989;-72
2023/05/18 12:47:07;;;;;;;0.60;0.10;;;17.50;1.00;;;;;;4974147;28;20453;-72
2023/05/18 12:49:40;;;;;;;0.60;0.10;;;17.60;1.00;;;;;;4974645;28;20565;-71
2023/05/18 12:52:11;;;;;;;0.60;0.20;;;17.70;1.00;;;;;;4970389;28;20545;-72
2023/05/18 12:54:57;;;;;;;1.00;0.73;;;17.80;1.00;;;;;;4970125;28;20500;-72
2023/05/18 12:57:25;;;;;;;0.60;0.10;;;17.90;1.00;;;;;;4969399;28;20468;-71
2023/05/18 12:59:54;;;;;;;0.60;0.20;;;17.80;1.00;;;;;;4971139;28;20474;-70
2023/05/18 13:02:33;;;;;;;0.60;0.20;;;17.90;1.00;;;;;;4961311;28;20549;-71
2023/05/18 13:05:08;;;;;;;0.60;0.10;;;18.10;1.00;;;;;;4963411;28;20472;-71
2023/05/18 13:07:38;;;;;;;0.60;0.20;;;18.30;1.00;;;;;;4973845;28;20455;-69
2023/05/18 13:10:07;;;;;;;0.60;0.10;;;18.60;1.00;;;;;;4974948;28;20450;-69
2023/05/18 13:12:40;;;;;;;0.60;0.20;;;18.90;1.00;;;;;;4975632;28;20460;-72
2023/05/18 13:15:11;;;;;;;0.90;0.73;;;;;;;;;;4975582;28;20504;-70
2023/05/18 13:17:48;;;;;;;0.60;0.20;;;18.50;1.00;;;;;;4976265;28;20459;-71
2023/05/18 13:20:18;;;;;;;0.70;0.30;;;;;;;;;;4976095;28;20464;-72
2023/05/18 13:22:46;;;;;;;0.60;0.20;;;18.00;1.00;;;;;;4976417;28;20489;-73
2023/05/18 13:25:15;;;;;;;1.50;0.70;;;;;;;;;;4975578;28;20481;-71
2023/05/18 13:27:44;;;;;;;0.60;0.10;;;17.80;1.00;;;;;;4969557;28;20460;-70
2023/05/18 13:30:12;;;;;;;1.00;0.53;;;17.90;1.00;;;;;;4974554;28;20469;-71
2023/05/18 13:32:43;;;;;;;0.60;0.20;;;18.20;1.00;;;;;;4975768;28;20476;-72
2023/05/18 13:35:12;;;;;;;0.70;0.40;;;18.20;1.00;;;;;;4972704;28;20528;-74
2023/05/18 13:37:41;;;;;;;0.60;0.20;;;18.30;1.00;;;;;;4973761;28;20985;-73
2023/05/18 13:40:10;;;;;;;0.60;0.20;;;18.50;1.00;;;;;;4978594;28;20475;-73
2023/05/18 13:42:38;;;;;;;0.60;0.17;;;18.30;1.00;;;;;;4993220;28;20507;-72
2023/05/18 13:45:07;;;;;;;0.70;0.40;;;18.20;1.00;;;;;;4974145;28;20857;-72
2023/05/18 13:47:35;;;;;;;0.60;0.10;;;18.20;1.00;;;;;;4976428;28;20444;-73
2023/05/18 13:50:03;;;;;;;0.60;0.10;;;18.20;1.00;;;;;;4976311;28;20454;-71
2023/05/18 13:52:31;;;;;;;0.60;0.10;;;;;;;;;;4972601;28;20554;-72
2023/05/18 13:55:01;;;;;;;0.60;0.20;;;18.60;1.00;;;;;;4964405;28;20501;-75
2023/05/18 13:57:30;;;;;;;0.70;0.20;;;18.80;1.00;;;;;;4977576;28;20515;-77
2023/05/18 14:00:02;;;;;;;0.60;0.20;;;19.00;1.00;;;;;;4978332;28;20466;-76
2023/05/18 14:02:30;;;;;;;0.60;0.20;;;;;;;;;;4978116;28;20546;-77
2023/05/18 14:04:59;;;;;;;0.60;0.20;;;;;;;;;;4974065;28;20488;-73
2023/05/18 14:07:27;;;;;;;0.60;0.10;;;19.30;1.00;;;;;;4976470;28;20449;-72
2023/05/18 14:09:55;;;;;;;0.70;0.40;;;19.40;1.00;;;;;;4972493;28;20488;-74
2023/05/18 14:12:24;;;;;;;5.10;0.70;;;19.40;1.00;;;;;;4958105;28;20442;-76
2023/05/18 14:14:52;;;;;;;0.77;0.47;;;19.30;1.00;;;;;;4969940;28;20489;-75
2023/05/18 14:17:20;;;;;;;0.60;0.10;;;19.10;1.00;;;;;;4969038;28;20464;-76
2023/05/18 14:19:48;;;;;;;0.60;0.10;;;19.10;1.00;;;;;;4976619;28;20446;-75
2023/05/18 14:22:17;;;;;;;0.97;0.77;;;19.10;1.00;;;;;;4972414;28;20485;-73
2023/05/18 14:24:45;;;;;;;0.60;0.20;;;19.20;1.00;;;;;;4969626;28;20478;-75
2023/05/18 14:27:13;;;;;;;0.70;0.20;;;19.40;1.00;;;;;;4966348;28;20458;-75
2023/05/18 14:29:42;;;;;;;0.60;0.20;;;19.50;1.00;;;;;;4957444;28;20542;-74
2023/05/18 14:32:10;;;;;;;0.60;0.10;;;19.70;1.00;;;;;;4968038;28;21461;-76
2023/05/18 14:34:38;;;;;;;0.70;0.30;;;19.70;1.00;;;;;;4975053;28;20564;-75
2023/05/18 14:37:06;;;;;;;0.70;0.30;;;19.60;1.00;;;;;;4963207;28;20474;-73
2023/05/18 14:39:35;;;;;;;1.10;0.50;;;;;;;;;;4963667;28;20442;-73
2023/05/18 14:42:02;;;;;;;0.60;0.10;;;19.50;1.00;;;;;;4976435;28;20445;-73
2023/05/18 14:44:30;;;;;;;0.60;0.10;;;19.50;1.00;;;;;;4974971;28;21005;-71
2023/05/18 14:47:00;;;;;;;0.60;0.20;;;19.50;1.00;;;;;;4975899;28;20456;-73
2023/05/18 14:49:28;;;;;;;0.60;0.10;;;19.60;1.00;;;;;;4970088;28;20570;-72
2023/05/18 14:51:55;;;;;;;0.60;0.20;;;17.80;1.00;;;;;;4959568;28;20548;-70
2023/05/18 14:54:24;;;;;;;0.70;0.30;;;19.70;1.00;;;;;;4976084;28;20871;-73
2023/05/18 14:56:52;;;;;;;0.60;0.10;;;19.80;1.00;;;;;;4967430;28;20536;-72
2023/05/18 14:59:21;;;;;;;0.60;0.13;;;19.80;1.00;;;;;;4975538;28;20453;-73
2023/05/18 15:01:48;;;;;;;0.60;0.20;;;19.70;1.00;;;;;;4974808;28;20532;-75
2023/05/18 15:04:20;;;;;;;0.70;0.40;;;19.80;1.00;;;;;;4975292;28;20508;-72
2023/05/18 15:06:48;;;;;;;0.60;0.10;;;19.80;1.00;;;;;;4977794;28;20966;-76
2023/05/18 15:09:16;;;;;;;0.80;0.60;;;19.90;1.00;;;;;;4981366;28;20545;-80
2023/05/18 15:11:45;;;;;;;0.60;0.13;;;20.00;1.00;;;;;;4981894;28;20453;-76
2023/05/18 15:14:13;;;;;;;0.60;0.10;;;20.10;1.00;;;;;;4967937;28;21011;-69
2023/05/18 15:16:41;;;;;;;0.70;0.30;;;;;;;;;;4972979;28;20460;-79
2023/05/18 15:19:09;;;;;;;0.80;0.30;;;19.80;1.00;;;;;;4974261;28;20431;-77
2023/05/18 15:21:39;;;;;;;0.70;0.30;;;19.90;1.00;;;;;;4977712;28;20447;-75
2023/05/18 15:24:07;;;;;;;0.70;0.30;;;19.90;1.00;;;;;;4978267;28;20895;-77
2023/05/18 15:26:35;;;;;;;0.60;0.20;;;20.10;1.00;;;;;;4970409;28;20468;-70
2023/05/18 15:29:03;;;;;;;0.60;0.10;;;20.10;1.00;;;;;;4973474;28;20454;-70
2023/05/18 15:31:32;;;;;;;0.70;0.57;;;;;;;;;;4968298;28;20512;-71
2023/05/18 15:34:00;;;;;;;0.60;0.10;;;20.30;1.00;;;;;;4974503;28;20477;-71
2023/05/18 15:36:30;;;;;;;0.60;0.20;;;;;;;;;;4974530;28;20939;-73
2023/05/18 15:39:03;;;;;;;0.60;0.13;;;20.70;1.00;;;;;;4975506;28;20447;-72
2023/05/18 15:41:33;;;;;;;0.60;0.20;;;20.70;1.00;;;;;;4973739;28;20458;-74
2023/05/18 15:44:02;;;;;;;0.80;0.43;;;20.50;1.00;;;;;;4966990;28;20502;-71
2023/05/18 15:46:33;;;;;;;0.60;0.10;;;20.20;1.00;;;;;;4975505;28;20973;-73
2023/05/18 15:49:02;;;;;;;0.60;0.10;;;20.20;1.00;;;;;;4975288;28;20992;-73
2023/05/18 15:51:31;;;;;;;0.60;0.30;;;20.30;1.00;;;;;;4974722;28;20544;-76
2023/05/18 15:54:01;;;;;;;0.60;0.20;;;;;;;;;;4975515;28;20558;-73
2023/05/18 15:56:29;;;;;;;0.90;0.77;;;20.60;1.00;;;;;;4973351;28;20474;-73
2023/05/18 15:58:57;;;;;;;0.60;0.10;;;;;;;;;;4963283;28;20460;-73
2023/05/18 16:01:25;;;;;;;0.63;0.20;;;20.50;1.00;;;;;;4966602;28;20446;-73
2023/05/18 16:03:53;;;;;;;1.90;1.80;;;;;;;;;;4974336;28;20544;-73
2023/05/18 16:06:21;;;;;;;0.60;0.20;;;20.50;1.00;;;;;;4974606;28;20508;-73
2023/05/18 16:08:49;;;;;;;1.97;0.80;;;20.30;1.00;;;;;;4974956;28;20454;-73
2023/05/18 16:11:19;;;;;;;0.60;0.20;;;20.20;1.00;;;;;;4974939;28;20517;-74
2023/05/18 16:13:48;;;;;;;0.90;0.47;;;20.00;1.00;;;;;;4975679;28;20564;-72
2023/05/18 16:16:17;;;;;;;0.60;0.20;;;;;;;;;;4975210;28;20449;-74
2023/05/18 16:18:46;;;;;;;7.40;6.63;;;;;;;;;;4974848;28;20446;-73
2023/05/18 16:21:14;;;;;;;0.60;0.20;;;20.40;1.00;;;;;;4974438;28;20479;-73
2023/05/18 16:23:42;;;;;;;0.60;0.10;;;;;;;;;;4975023;28;20489;-73
2023/05/18 16:26:11;;;;;;;0.80;0.60;;;20.90;1.00;;;;;;4974815;28;20447;-73
2023/05/18 16:28:41;;;;;;;0.70;0.40;;;20.90;1.00;;;;;;4974743;28;20827;-73
2023/05/18 16:31:10;;;;;;;0.60;0.10;;;21.00;1.00;;;;;;4975282;28;20544;-74
2023/05/18 16:33:39;;;;;;;0.70;0.30;;;;;;;;;;4974927;28;20462;-74
2023/05/18 16:36:07;;;;;;;0.60;0.10;;;21.10;1.00;;;;;;4974320;28;20858;-73
2023/05/18 16:38:36;;;;;;;0.60;0.20;;;20.90;1.00;;;;;;4974151;28;20460;-74
2023/05/18 16:41:04;;;;;;;0.60;0.10;;;21.00;1.00;;;;;;4966128;28;20514;-75
2023/05/18 16:43:33;;;;;;;1.93;0.30;;;;;;;;;;4974271;28;20475;-73
2023/05/18 16:46:02;;;;;;;0.80;0.40;;;;;;;;;;4974330;28;20486;-73
2023/05/18 16:48:31;;;;;;;0.83;0.40;;;;;;;;;;4974950;28;20446;-72
2023/05/18 16:50:58;;;;;;;0.60;0.20;;;20.70;1.00;;;;;;4975269;28;20441;-76
2023/05/18 16:53:26;;;;;;;1.37;0.30;;;20.70;1.00;;;;;;4976172;28;20963;-73
2023/05/18 16:55:55;;;;;;;1.33;0.67;;;;;;;;;;4975162;28;20502;-73
2023/05/18 16:58:23;;;;;;;0.60;0.10;;;;;;;;;;4975346;28;20557;-73
2023/05/18 17:00:52;;;;;;;0.60;0.20;;;;;;;;;;4972620;28;20461;-74
2023/05/18 17:03:21;;;;;;;0.87;0.17;;;21.40;1.00;;;;;;4975030;28;20479;-73
2023/05/18 17:05:50;;;;;;;0.60;0.10;;;21.30;1.00;;;;;;4974407;28;20445;-73
2023/05/18 17:08:18;;;;;;;0.60;0.10;;;21.50;1.00;;;;;;4974424;28;20944;-74
2023/05/18 17:10:46;;;;;;;0.60;0.20;;;21.50;1.00;;;;;;4981527;28;20469;-71
2023/05/18 17:13:14;;;;;;;0.90;0.40;;;21.70;1.00;;;;;;4979406;28;20927;-72
2023/05/18 17:15:42;;;;;;;0.60;0.10;;;21.50;1.00;;;;;;4973039;28;20538;-70
2023/05/18 17:18:10;;;;;;;0.70;0.40;;;21.60;1.00;;;;;;4981552;28;20454;-69
2023/05/18 17:20:40;;;;;;;0.90;0.73;;;21.80;1.00;;;;;;4974480;28;20505;-75